Time;durP1;ratioP1;P1;durP2;ratioP2;P2;SDS_P1;SDS_P2;PMS_P1;PMS_P2;Temp;Humidity;BMP_temperature;BMP_pressure;BME280_temperature;BME280_humidity;BME280_pressure;Samples;Min_cycle;Max_cycle;Signal;HPM_P1;HPM_P2
2023/07/19 00:00:40;;;;;;;0.88;0.70;;;24.10;53.10;;;;;;5058696;28;20025;-80
2023/07/19 00:03:06;;;;;;;1.65;0.95;;;24.10;53.10;;;;;;5059174;28;20078;-79
2023/07/19 00:05:32;;;;;;;1.33;0.73;;;24.10;53.20;;;;;;5076672;28;20043;-79
2023/07/19 00:07:58;;;;;;;1.17;0.80;;;24.00;53.20;;;;;;5041648;28;20040;-79
2023/07/19 00:10:24;;;;;;;1.38;0.88;;;24.00;53.30;;;;;;5041239;28;20069;-79
2023/07/19 00:12:50;;;;;;;0.85;0.70;;;24.00;53.30;;;;;;5041149;28;20432;-80
2023/07/19 00:15:16;;;;;;;1.48;0.90;;;23.90;53.30;;;;;;5041292;28;20113;-79
2023/07/19 00:17:44;;;;;;;1.05;0.85;;;23.90;53.40;;;;;;5058224;28;20079;-79
2023/07/19 00:20:14;;;;;;;1.23;0.88;;;23.80;53.40;;;;;;5057709;28;20029;-79
2023/07/19 00:22:40;;;;;;;1.35;0.90;;;23.90;53.50;;;;;;5057737;28;20513;-80
2023/07/19 00:25:06;;;;;;;0.77;0.70;;;23.80;53.50;;;;;;5041275;28;20036;-80
2023/07/19 00:27:32;;;;;;;0.75;0.75;;;23.80;53.50;;;;;;5075917;28;20055;-80
2023/07/19 00:29:58;;;;;;;0.95;0.90;;;23.70;53.50;;;;;;5041124;28;20068;-79
2023/07/19 00:32:24;;;;;;;1.40;0.80;;;23.80;53.60;;;;;;5041456;28;20115;-78
2023/07/19 00:34:50;;;;;;;0.80;0.80;;;23.70;53.60;;;;;;5041954;28;20063;-79
2023/07/19 00:37:16;;;;;;;0.95;0.82;;;23.70;53.60;;;;;;5059275;28;20394;-80
2023/07/19 00:39:42;;;;;;;1.42;0.90;;;23.70;53.70;;;;;;5060128;28;20077;-80
2023/07/19 00:42:08;;;;;;;0.75;0.75;;;23.60;53.70;;;;;;5058549;28;20041;-80
2023/07/19 00:44:35;;;;;;;1.55;0.93;;;23.60;53.70;;;;;;5057894;28;20028;-80
2023/07/19 00:47:02;;;;;;;0.65;0.65;;;23.60;53.80;;;;;;5075595;28;20028;-79
2023/07/19 00:49:32;;;;;;;0.60;0.60;;;23.60;53.80;;;;;;5056571;28;20476;-79
2023/07/19 00:52:02;;;;;;;0.70;0.70;;;23.60;53.90;;;;;;5040603;28;20158;-80
2023/07/19 00:54:29;;;;;;;1.05;0.85;;;23.60;53.90;;;;;;5075382;28;20052;-79
2023/07/19 00:56:56;;;;;;;1.13;0.77;;;23.50;53.90;;;;;;5073798;28;20067;-79
2023/07/19 00:59:23;;;;;;;0.70;0.70;;;23.50;53.90;;;;;;5057706;28;20067;-79
2023/07/19 01:01:50;;;;;;;1.02;0.88;;;23.50;54.00;;;;;;5057984;28;20115;-80
2023/07/19 01:04:16;;;;;;;1.10;0.88;;;23.40;53.90;;;;;;5040443;28;20035;-79
2023/07/19 01:06:43;;;;;;;1.23;0.80;;;23.40;54.00;;;;;;5057026;28;20025;-79
2023/07/19 01:09:11;;;;;;;1.67;0.98;;;23.40;54.00;;;;;;5057063;28;20465;-79
2023/07/19 01:11:36;;;;;;;1.30;0.80;;;23.30;54.00;;;;;;5056828;28;20036;-81
2023/07/19 01:14:02;;;;;;;1.02;0.88;;;23.30;54.00;;;;;;5074933;28;20055;-79
2023/07/19 01:16:29;;;;;;;1.15;1.00;;;23.30;54.10;;;;;;5024180;28;20043;-79
2023/07/19 01:18:55;;;;;;;0.77;0.75;;;23.30;54.20;;;;;;5040074;28;20033;-79
2023/07/19 01:21:22;;;;;;;0.90;0.90;;;23.20;54.10;;;;;;5056684;28;20550;-80
2023/07/19 01:23:48;;;;;;;1.50;1.08;;;23.20;54.20;;;;;;5041055;28;20040;-80
2023/07/19 01:26:14;;;;;;;1.38;1.00;;;23.20;54.30;;;;;;5074230;28;20485;-79
2023/07/19 01:28:40;;;;;;;1.38;1.00;;;23.20;54.30;;;;;;5040615;28;20107;-79
2023/07/19 01:31:06;;;;;;;1.08;0.98;;;23.10;54.30;;;;;;5040654;28;20059;-79
2023/07/19 01:33:32;;;;;;;1.67;1.00;;;23.10;54.40;;;;;;5056947;28;20040;-80
2023/07/19 01:35:58;;;;;;;1.08;0.90;;;23.10;54.40;;;;;;5056707;28;20028;-79
2023/07/19 01:38:26;;;;;;;0.93;0.93;;;23.00;54.40;;;;;;5057172;28;20025;-79
2023/07/19 01:40:52;;;;;;;1.13;0.90;;;23.00;54.50;;;;;;5023404;28;20465;-79
2023/07/19 01:43:18;;;;;;;0.80;0.80;;;23.00;54.60;;;;;;5040482;28;20028;-80
2023/07/19 01:45:45;;;;;;;1.00;0.63;;;22.90;54.50;;;;;;5039782;28;20492;-79
2023/07/19 01:48:12;;;;;;;1.10;0.93;;;22.90;54.60;;;;;;5073800;28;20119;-79
2023/07/19 01:50:38;;;;;;;1.33;1.02;;;22.90;54.60;;;;;;5074749;28;20040;-79
2023/07/19 01:53:07;;;;;;;0.82;0.80;;;22.90;54.70;;;;;;5039435;28;20169;-80
2023/07/19 01:55:36;;;;;;;1.00;1.00;;;22.80;54.70;;;;;;5073931;28;20135;-81
2023/07/19 01:58:01;;;;;;;0.95;0.93;;;22.80;54.70;;;;;;5040196;28;20441;-79
2023/07/19 02:00:27;;;;;;;0.98;0.90;;;22.80;54.80;;;;;;5038591;28;20044;-80
2023/07/19 02:02:53;;;;;;;1.73;1.10;;;22.70;54.80;;;;;;5038898;28;20031;-79
2023/07/19 02:05:19;;;;;;;1.23;0.90;;;22.70;54.80;;;;;;5039564;28;20087;-79
2023/07/19 02:07:44;;;;;;;1.38;0.80;;;22.70;54.90;;;;;;5039290;28;20032;-79
2023/07/19 02:10:11;;;;;;;1.67;0.95;;;22.60;54.90;;;;;;5039295;28;20038;-79
2023/07/19 02:12:37;;;;;;;1.02;1.00;;;22.60;55.00;;;;;;5056286;28;20436;-81
2023/07/19 02:15:04;;;;;;;1.42;1.15;;;22.60;55.00;;;;;;5039401;28;20441;-79
2023/07/19 02:17:29;;;;;;;0.85;0.73;;;22.50;55.00;;;;;;5039182;28;20060;-78
2023/07/19 02:19:57;;;;;;;1.25;1.15;;;22.50;55.00;;;;;;5056089;28;20043;-78
2023/07/19 02:22:23;;;;;;;1.00;0.85;;;22.50;55.10;;;;;;5039047;28;20384;-79
2023/07/19 02:24:49;;;;;;;1.52;1.00;;;22.50;55.10;;;;;;5055382;28;20093;-79
2023/07/19 02:27:15;;;;;;;1.00;0.95;;;22.50;55.20;;;;;;5072155;28;20040;-80
2023/07/19 02:29:40;;;;;;;1.00;0.88;;;22.40;55.20;;;;;;5039004;28;20031;-78
2023/07/19 02:32:06;;;;;;;1.65;1.00;;;22.40;55.30;;;;;;5038618;28;20033;-79
2023/07/19 02:34:32;;;;;;;0.85;0.85;;;22.40;55.30;;;;;;5055560;28;20098;-79
2023/07/19 02:36:58;;;;;;;0.90;0.88;;;22.40;55.40;;;;;;5073292;28;20028;-78
2023/07/19 02:39:27;;;;;;;0.95;0.90;;;22.40;55.50;;;;;;5056133;28;20035;-78
2023/07/19 02:41:53;;;;;;;1.25;1.15;;;22.30;55.40;;;;;;5039297;28;20087;-78
2023/07/19 02:44:21;;;;;;;1.38;0.98;;;22.30;55.50;;;;;;5039057;28;20044;-79
2023/07/19 02:46:47;;;;;;;0.88;0.88;;;22.30;55.50;;;;;;5038647;28;20128;-79
2023/07/19 02:49:13;;;;;;;1.45;1.00;;;22.20;55.50;;;;;;5023059;28;20064;-79
2023/07/19 02:51:39;;;;;;;1.00;0.90;;;22.20;55.60;;;;;;5038595;28;20140;-79
2023/07/19 02:54:05;;;;;;;1.10;1.00;;;22.20;55.60;;;;;;5054636;28;20052;-78
2023/07/19 02:56:31;;;;;;;1.58;0.90;;;22.20;55.70;;;;;;5055083;28;20039;-79
2023/07/19 02:58:56;;;;;;;2.00;1.35;;;22.10;55.60;;;;;;5055182;28;20165;-78
2023/07/19 03:01:22;;;;;;;1.38;1.10;;;22.10;55.70;;;;;;5038546;28;20036;-79
2023/07/19 03:03:49;;;;;;;1.00;0.90;;;22.10;55.80;;;;;;5038359;28;20521;-79
2023/07/19 03:06:15;;;;;;;1.27;1.05;;;22.10;55.80;;;;;;5071887;28;20025;-79
2023/07/19 03:08:43;;;;;;;1.27;1.10;;;22.00;55.80;;;;;;5055062;28;20101;-78
2023/07/19 03:11:08;;;;;;;1.42;1.17;;;22.00;55.80;;;;;;5055436;28;20055;-79
2023/07/19 03:13:35;;;;;;;1.33;1.00;;;22.00;55.90;;;;;;5042975;28;20452;-79
2023/07/19 03:16:01;;;;;;;1.30;1.00;;;21.90;55.90;;;;;;5059347;28;20044;-79
2023/07/19 03:18:27;;;;;;;1.25;1.15;;;21.90;55.90;;;;;;5058977;28;20040;-78
2023/07/19 03:21:01;;;;;;;1.58;1.10;;;21.90;56.60;;;;;;5077419;28;20450;-78
2023/07/19 03:23:30;;;;;;;1.13;0.90;;;21.90;56.00;;;;;;5058839;28;20032;-80
2023/07/19 03:25:58;;;;;;;1.30;1.00;;;21.80;56.00;;;;;;5058838;28;20024;-79
2023/07/19 03:28:29;;;;;;;1.08;0.98;;;21.90;56.10;;;;;;5026919;28;20411;-78
2023/07/19 03:30:58;;;;;;;2.35;1.25;;;21.80;56.10;;;;;;5042856;28;20025;-79
2023/07/19 03:33:25;;;;;;;0.95;0.95;;;21.80;56.20;;;;;;5042149;28;20036;-78
2023/07/19 03:35:52;;;;;;;1.30;1.20;;;21.80;56.20;;;;;;5058408;28;20047;-80
2023/07/19 03:38:19;;;;;;;1.63;1.27;;;21.70;56.20;;;;;;5058837;28;20028;-79
2023/07/19 03:40:45;;;;;;;1.67;1.23;;;21.70;56.20;;;;;;5042391;28;20396;-79
2023/07/19 03:43:11;;;;;;;1.70;1.15;;;21.60;56.30;;;;;;5042015;28;20070;-78
2023/07/19 03:45:37;;;;;;;2.47;1.55;;;21.60;56.30;;;;;;5058463;28;20078;-79
2023/07/19 03:48:03;;;;;;;1.58;1.23;;;21.60;56.40;;;;;;5042670;28;20040;-80
2023/07/19 03:50:31;;;;;;;1.92;1.30;;;21.60;56.40;;;;;;5026745;28;20524;-79
2023/07/19 03:52:57;;;;;;;1.50;1.20;;;21.60;56.50;;;;;;5058380;28;20208;-79
2023/07/19 03:55:23;;;;;;;1.88;1.42;;;21.60;56.50;;;;;;5021686;28;20120;-78
2023/07/19 03:57:49;;;;;;;2.28;1.10;;;21.50;56.50;;;;;;5054917;28;20025;-79
2023/07/19 04:00:16;;;;;;;2.17;1.30;;;21.50;56.50;;;;;;5038595;28;20048;-79
2023/07/19 04:02:45;;;;;;;1.85;1.30;;;21.50;56.60;;;;;;5038934;28;20461;-79
2023/07/19 04:05:13;;;;;;;2.17;1.30;;;21.40;56.60;;;;;;5038734;28;20048;-78
2023/07/19 04:07:39;;;;;;;1.40;1.30;;;21.40;56.60;;;;;;5039400;28;20025;-81
2023/07/19 04:10:05;;;;;;;2.33;1.50;;;21.40;56.70;;;;;;5039269;28;20029;-79
2023/07/19 04:12:30;;;;;;;1.77;1.42;;;21.40;56.70;;;;;;5021967;28;20466;-78
2023/07/19 04:14:57;;;;;;;1.67;1.33;;;21.40;56.70;;;;;;5005606;28;20435;-79
2023/07/19 04:17:25;;;;;;;1.50;1.20;;;21.30;56.70;;;;;;5038613;28;20041;-79
2023/07/19 04:19:51;;;;;;;1.30;1.17;;;21.30;56.70;;;;;;5038112;28;20039;-79
2023/07/19 04:22:17;;;;;;;1.48;1.33;;;21.30;57.40;;;;;;5038238;28;20056;-79
2023/07/19 04:24:42;;;;;;;1.70;1.38;;;21.30;56.80;;;;;;5053882;28;20060;-79
2023/07/19 04:27:09;;;;;;;1.65;1.35;;;21.20;56.80;;;;;;5038045;28;20075;-79
2023/07/19 04:29:35;;;;;;;2.15;1.40;;;21.30;56.90;;;;;;5038141;28;20025;-79
2023/07/19 04:32:01;;;;;;;1.65;1.30;;;21.20;56.80;;;;;;5054375;28;20040;-79
2023/07/19 04:34:29;;;;;;;1.50;1.25;;;21.20;56.90;;;;;;5037935;28;20071;-78
2023/07/19 04:36:55;;;;;;;1.98;1.10;;;21.20;56.90;;;;;;5037723;28;20048;-79
2023/07/19 04:39:21;;;;;;;1.23;1.10;;;21.20;57.00;;;;;;5038434;28;20021;-80
2023/07/19 04:41:48;;;;;;;2.92;1.52;;;21.20;57.10;;;;;;5037913;28;20069;-79
2023/07/19 04:44:16;;;;;;;2.30;1.42;;;21.10;57.00;;;;;;5054087;28;20082;-78
2023/07/19 04:46:42;;;;;;;1.52;1.38;;;21.20;57.10;;;;;;5037481;28;20037;-79
2023/07/19 04:49:08;;;;;;;1.58;1.25;;;21.10;57.10;;;;;;5037878;28;20029;-81
2023/07/19 04:51:34;;;;;;;1.52;1.42;;;21.10;57.20;;;;;;5040753;28;20029;-79
2023/07/19 04:54:00;;;;;;;2.05;1.50;;;21.10;57.20;;;;;;5038646;28;20490;-80
2023/07/19 04:56:27;;;;;;;1.30;1.20;;;21.10;57.30;;;;;;5054163;28;20037;-81
2023/07/19 04:58:54;;;;;;;1.42;1.33;;;21.10;57.40;;;;;;5037636;28;20082;-77
2023/07/19 05:01:20;;;;;;;1.70;1.35;;;21.10;57.40;;;;;;5055045;28;20036;-77
2023/07/19 05:03:46;;;;;;;1.67;1.45;;;21.10;57.40;;;;;;5037937;28;20041;-78
2023/07/19 05:06:12;;;;;;;1.73;1.40;;;21.10;57.40;;;;;;5037611;28;20039;-77
2023/07/19 05:08:38;;;;;;;2.70;1.95;;;21.10;57.50;;;;;;5038056;28;20115;-78
2023/07/19 05:11:04;;;;;;;1.83;1.38;;;21.10;57.60;;;;;;5037439;28;20426;-78
2023/07/19 05:13:31;;;;;;;1.40;1.30;;;21.00;57.60;;;;;;5037408;28;20040;-79
2023/07/19 05:15:59;;;;;;;2.78;1.42;;;21.00;57.70;;;;;;5055064;28;20037;-80
2023/07/19 05:18:24;;;;;;;1.65;1.35;;;21.00;57.70;;;;;;5037367;28;20033;-81
2023/07/19 05:20:52;;;;;;;1.98;1.33;;;21.00;57.70;;;;;;5037168;28;20039;-81
2023/07/19 05:23:18;;;;;;;2.65;1.50;;;21.00;57.70;;;;;;5037600;28;20380;-80
2023/07/19 05:25:45;;;;;;;1.88;1.35;;;21.00;57.80;;;;;;5020712;28;20041;-81
2023/07/19 05:28:12;;;;;;;1.67;1.38;;;21.00;57.80;;;;;;5054616;28;20136;-83
2023/07/19 05:30:38;;;;;;;2.13;1.48;;;21.00;57.80;;;;;;5053570;28;20070;-80
2023/07/19 05:33:04;;;;;;;2.55;1.65;;;21.00;57.80;;;;;;5053478;28;20119;-83
2023/07/19 05:35:33;;;;;;;1.42;1.27;;;21.00;57.90;;;;;;5036825;28;20043;-80
2023/07/19 05:37:59;;;;;;;1.67;1.48;;;21.00;58.00;;;;;;5004158;28;20033;-80
2023/07/19 05:40:25;;;;;;;2.03;1.40;;;21.00;58.60;;;;;;5054798;28;20029;-81
2023/07/19 05:42:51;;;;;;;1.85;1.45;;;21.00;58.00;;;;;;5053068;28;20404;-80
2023/07/19 05:45:18;;;;;;;1.73;1.50;;;21.00;58.00;;;;;;5036730;28;20496;-81
2023/07/19 05:47:44;;;;;;;2.45;1.40;;;21.00;58.00;;;;;;5020819;28;20355;-82
2023/07/19 05:50:10;;;;;;;2.08;1.52;;;21.00;58.00;;;;;;5053498;28;20025;-80
2023/07/19 05:52:37;;;;;;;1.60;1.50;;;21.00;58.00;;;;;;5019872;28;20039;-81
2023/07/19 05:55:03;;;;;;;2.10;1.50;;;21.00;58.10;;;;;;5035750;28;20052;-81
2023/07/19 05:57:30;;;;;;;2.67;1.60;;;21.10;58.10;;;;;;5052672;28;20082;-81
2023/07/19 05:59:57;;;;;;;1.75;1.40;;;21.10;58.20;;;;;;5036488;28;20029;-87
2023/07/19 06:02:23;;;;;;;1.48;1.30;;;21.10;58.20;;;;;;5053048;28;20112;-85
2023/07/19 06:04:49;;;;;;;2.33;1.50;;;21.10;58.20;;;;;;5020417;28;20064;-84
2023/07/19 06:07:15;;;;;;;1.98;1.48;;;21.10;58.20;;;;;;5020125;28;20087;-85
2023/07/19 06:09:41;;;;;;;1.90;1.45;;;21.10;58.20;;;;;;5036392;28;20539;-82
2023/07/19 06:12:07;;;;;;;2.10;1.50;;;21.10;58.20;;;;;;5019901;28;20029;-83
2023/07/19 06:14:33;;;;;;;2.13;1.60;;;21.10;58.20;;;;;;5053047;28;20041;-83
2023/07/19 06:16:59;;;;;;;1.75;1.48;;;21.10;58.20;;;;;;5053164;28;20037;-82
2023/07/19 06:19:25;;;;;;;1.50;1.40;;;21.10;58.20;;;;;;5036564;28;20029;-83
2023/07/19 06:21:51;;;;;;;1.77;1.33;;;21.10;58.30;;;;;;5052631;28;20116;-83
2023/07/19 06:24:17;;;;;;;2.47;1.73;;;21.20;58.30;;;;;;5036474;28;20072;-82
2023/07/19 06:26:43;;;;;;;2.03;1.45;;;21.20;58.30;;;;;;5035696;28;20113;-81
2023/07/19 06:29:08;;;;;;;2.25;1.38;;;21.20;58.30;;;;;;5054251;28;20033;-82
2023/07/19 06:31:34;;;;;;;1.63;1.30;;;21.20;58.30;;;;;;5036156;28;20120;-82
2023/07/19 06:34:00;;;;;;;2.50;1.50;;;21.20;58.30;;;;;;5035515;28;20029;-82
2023/07/19 06:36:26;;;;;;;1.73;1.40;;;21.20;58.30;;;;;;5035782;28;20033;-82
2023/07/19 06:38:52;;;;;;;2.45;1.40;;;21.20;58.30;;;;;;5052393;28;20095;-81
2023/07/19 06:41:18;;;;;;;1.90;1.50;;;21.30;58.40;;;;;;5053984;28;20485;-81
2023/07/19 06:43:44;;;;;;;1.95;1.45;;;21.30;58.30;;;;;;5038291;28;20040;-82
2023/07/19 06:46:09;;;;;;;1.50;1.40;;;21.30;58.30;;;;;;5052386;28;20072;-82
2023/07/19 06:48:35;;;;;;;2.25;1.60;;;21.30;58.40;;;;;;5035273;28;20029;-82
2023/07/19 06:51:02;;;;;;;1.77;1.55;;;21.40;58.40;;;;;;5052771;28;20025;-83
2023/07/19 06:53:28;;;;;;;1.83;1.30;;;21.40;58.40;;;;;;5052466;28;20067;-81
2023/07/19 06:56:01;;;;;;;2.13;1.52;;;21.40;58.40;;;;;;5039404;28;20111;-81
2023/07/19 06:58:27;;;;;;;1.50;1.40;;;21.40;58.40;;;;;;5055834;28;20058;-81
2023/07/19 07:00:56;;;;;;;2.33;1.52;;;21.50;58.40;;;;;;5055317;28;20393;-81
2023/07/19 07:03:22;;;;;;;2.25;1.55;;;21.50;58.40;;;;;;5038948;28;20465;-79
2023/07/19 07:05:49;;;;;;;2.30;1.60;;;21.50;58.40;;;;;;5073072;28;20029;-79
2023/07/19 07:08:15;;;;;;;2.17;1.58;;;21.50;58.30;;;;;;5038818;28;20025;-79
2023/07/19 07:10:42;;;;;;;2.90;1.70;;;21.50;58.30;;;;;;5038980;28;20055;-81
2023/07/19 07:13:09;;;;;;;1.83;1.23;;;21.60;58.40;;;;;;5038874;28;20094;-82
2023/07/19 07:15:35;;;;;;;2.40;1.60;;;21.60;58.30;;;;;;5055314;28;20044;-81
2023/07/19 07:18:01;;;;;;;1.42;1.20;;;21.60;58.30;;;;;;5055502;28;20047;-82
2023/07/19 07:20:27;;;;;;;2.03;1.48;;;21.70;58.30;;;;;;5055482;28;20025;-81
2023/07/19 07:22:53;;;;;;;1.98;1.30;;;21.70;58.30;;;;;;5055925;28;20423;-82
2023/07/19 07:25:19;;;;;;;1.50;1.40;;;21.70;58.20;;;;;;5038694;28;20035;-83
2023/07/19 07:27:45;;;;;;;1.77;1.42;;;21.70;58.20;;;;;;5038639;28;20028;-81
2023/07/19 07:30:11;;;;;;;1.88;1.30;;;21.80;58.10;;;;;;5038525;28;20039;-82
2023/07/19 07:32:37;;;;;;;1.52;1.20;;;21.80;58.10;;;;;;5022266;28;20060;-80
2023/07/19 07:35:03;;;;;;;2.63;1.40;;;21.80;58.10;;;;;;5039266;28;20032;-82
2023/07/19 07:37:29;;;;;;;1.60;1.33;;;21.90;58.10;;;;;;5055220;28;20037;-81
2023/07/19 07:39:54;;;;;;;1.38;1.20;;;21.90;58.10;;;;;;5073824;28;20162;-82
2023/07/19 07:42:21;;;;;;;1.40;1.17;;;21.90;58.00;;;;;;5055164;28;20031;-81
2023/07/19 07:44:46;;;;;;;2.38;1.42;;;22.00;58.00;;;;;;5039253;28;20040;-81
2023/07/19 07:47:12;;;;;;;1.50;1.40;;;22.00;58.00;;;;;;5038418;28;20035;-83
2023/07/19 07:49:38;;;;;;;2.47;1.15;;;22.00;57.90;;;;;;5055298;28;20033;-81
2023/07/19 07:52:04;;;;;;;2.33;1.40;;;22.10;57.90;;;;;;5038658;28;20122;-81
2023/07/19 07:54:30;;;;;;;1.35;1.13;;;22.10;57.90;;;;;;5072841;28;20052;-81
2023/07/19 07:56:56;;;;;;;1.92;1.40;;;22.20;57.80;;;;;;5055357;28;20353;-82
2023/07/19 07:59:21;;;;;;;1.48;1.30;;;22.20;57.80;;;;;;5039835;28;20060;-81
2023/07/19 08:01:47;;;;;;;2.05;1.50;;;22.20;57.70;;;;;;5075385;28;20477;-81
2023/07/19 08:04:13;;;;;;;1.92;1.30;;;22.30;57.70;;;;;;5041859;28;20036;-81
2023/07/19 08:06:39;;;;;;;2.50;1.20;;;22.40;57.60;;;;;;5041916;28;20123;-80
2023/07/19 08:09:05;;;;;;;1.33;1.00;;;22.40;57.50;;;;;;5058631;28;20031;-81
2023/07/19 08:11:32;;;;;;;1.85;1.27;;;22.50;57.40;;;;;;5074908;28;20155;-81
2023/07/19 08:13:58;;;;;;;1.45;1.30;;;22.60;57.40;;;;;;5041970;28;20393;-80
2023/07/19 08:16:24;;;;;;;1.30;1.02;;;22.60;57.20;;;;;;5041740;28;20031;-80
2023/07/19 08:18:49;;;;;;;1.20;0.95;;;22.70;57.10;;;;;;5058230;28;20084;-81
2023/07/19 08:21:15;;;;;;;1.55;1.30;;;22.70;57.10;;;;;;5041564;28;20388;-81
2023/07/19 08:23:41;;;;;;;1.10;0.98;;;22.80;57.00;;;;;;5075057;28;20086;-79
2023/07/19 08:26:07;;;;;;;1.48;1.38;;;22.90;56.90;;;;;;5058047;28;20033;-77
2023/07/19 08:28:32;;;;;;;1.40;1.02;;;22.90;56.80;;;;;;5041625;28;20040;-79
2023/07/19 08:30:58;;;;;;;0.98;0.93;;;23.00;56.70;;;;;;5075661;28;20024;-80
2023/07/19 08:33:24;;;;;;;1.08;1.00;;;23.10;56.70;;;;;;5058474;28;20032;-79
2023/07/19 08:35:51;;;;;;;1.50;1.13;;;23.10;56.60;;;;;;5058287;28;20063;-81
2023/07/19 08:38:17;;;;;;;1.30;1.00;;;23.20;56.60;;;;;;5041261;28;20528;-79
2023/07/19 08:40:53;;;;;;;1.02;0.98;;;23.30;56.50;;;;;;5076418;28;20090;-80
2023/07/19 08:43:20;;;;;;;1.33;1.00;;;23.30;56.50;;;;;;5076169;28;20074;-79
2023/07/19 08:45:46;;;;;;;1.10;1.00;;;23.40;56.40;;;;;;5075598;28;20029;-79
2023/07/19 08:48:12;;;;;;;1.70;1.23;;;23.50;56.30;;;;;;5041073;28;20081;-83
2023/07/19 08:50:39;;;;;;;1.58;1.20;;;23.60;56.30;;;;;;5074332;28;20132;-80
2023/07/19 08:53:05;;;;;;;1.50;1.08;;;23.60;56.30;;;;;;5058574;28;20063;-83
2023/07/19 08:55:32;;;;;;;1.75;1.20;;;23.80;56.30;;;;;;5040499;28;20135;-80
2023/07/19 08:57:59;;;;;;;1.33;1.15;;;23.80;56.30;;;;;;5057927;28;20485;-80
2023/07/19 09:00:28;;;;;;;1.67;1.20;;;23.90;56.20;;;;;;5057577;28;20416;-79
2023/07/19 09:02:55;;;;;;;1.98;1.20;;;24.00;56.20;;;;;;5041382;28;20481;-79
2023/07/19 09:05:20;;;;;;;1.98;1.40;;;24.10;56.10;;;;;;5074190;28;20035;-81
2023/07/19 09:07:50;;;;;;;1.90;1.20;;;24.10;56.10;;;;;;5077258;28;20108;-80
2023/07/19 09:10:18;;;;;;;1.83;1.02;;;24.20;56.10;;;;;;5046476;28;20040;-80
2023/07/19 09:12:44;;;;;;;1.00;0.90;;;24.20;56.00;;;;;;5065566;28;20021;-80
2023/07/19 09:15:12;;;;;;;1.30;1.10;;;24.30;56.00;;;;;;5059498;28;20035;-80
2023/07/19 09:17:43;;;;;;;2.05;1.20;;;24.30;55.90;;;;;;5075048;28;20043;-79
2023/07/19 09:20:10;;;;;;;1.20;1.10;;;24.30;55.90;;;;;;5057587;28;20036;-79
2023/07/19 09:22:37;;;;;;;1.73;1.25;;;24.40;55.90;;;;;;5074679;28;20039;-80
2023/07/19 09:25:09;;;;;;;1.45;1.00;;;24.40;55.90;;;;;;5040657;28;20036;-79
2023/07/19 09:27:35;;;;;;;1.52;1.10;;;24.50;55.90;;;;;;5074768;28;20441;-81
2023/07/19 09:30:03;;;;;;;1.35;1.00;;;24.50;55.90;;;;;;5057147;28;20035;-80
2023/07/19 09:32:29;;;;;;;1.10;0.90;;;24.60;55.90;;;;;;5040216;28;20036;-81
2023/07/19 09:34:57;;;;;;;1.50;1.10;;;24.60;55.90;;;;;;5057281;28;20039;-81
2023/07/19 09:37:24;;;;;;;1.70;1.20;;;24.70;55.90;;;;;;5040603;28;20459;-81
2023/07/19 09:39:52;;;;;;;1.40;1.13;;;24.80;55.90;;;;;;5074895;28;20518;-81
2023/07/19 09:42:20;;;;;;;2.22;1.20;;;24.80;55.80;;;;;;5040669;28;20060;-81
2023/07/19 09:44:47;;;;;;;2.10;1.10;;;24.90;55.80;;;;;;5056797;28;20524;-80
2023/07/19 09:47:14;;;;;;;1.30;1.02;;;24.90;55.60;;;;;;5056673;28;20070;-81
2023/07/19 09:49:42;;;;;;;1.30;1.20;;;25.00;55.50;;;;;;5040618;28;20032;-81
2023/07/19 09:52:10;;;;;;;1.98;1.25;;;25.10;55.40;;;;;;5057035;28;20033;-81
2023/07/19 09:54:36;;;;;;;2.17;1.20;;;25.10;55.40;;;;;;5074331;28;20044;-85
2023/07/19 09:57:03;;;;;;;1.80;1.10;;;25.20;55.30;;;;;;5056411;28;20103;-81
2023/07/19 09:59:39;;;;;;;1.70;1.00;;;25.20;55.30;;;;;;5074276;28;20033;-81
2023/07/19 10:02:05;;;;;;;1.30;1.08;;;25.20;55.30;;;;;;5056723;28;20029;-79
2023/07/19 10:04:37;;;;;;;1.23;1.10;;;25.30;55.20;;;;;;5040493;28;20037;-80
2023/07/19 10:07:04;;;;;;;1.27;1.05;;;25.30;55.20;;;;;;5056183;28;20024;-81
2023/07/19 10:09:37;;;;;;;1.65;1.10;;;25.40;55.20;;;;;;5056659;28;20033;-80
2023/07/19 10:12:24;;;;;;;1.83;1.10;;;25.40;55.20;;;;;;5055934;28;20115;-81
2023/07/19 10:14:59;;;;;;;0.90;0.82;;;25.50;55.20;;;;;;5039396;28;20031;-81
2023/07/19 10:17:25;;;;;;;0.73;0.73;;;25.60;55.20;;;;;;5056180;28;20024;-85
2023/07/19 10:20:14;;;;;;;1.35;1.00;;;25.60;55.10;;;;;;5074305;28;20480;-87
2023/07/19 10:22:56;;;;;;;1.13;1.02;;;25.70;55.10;;;;;;5056038;28;20025;-85
2023/07/19 10:25:27;;;;;;;1.65;1.27;;;25.70;55.10;;;;;;5056784;28;20496;-85
2023/07/19 10:27:56;;;;;;;1.90;1.02;;;25.80;55.10;;;;;;5056589;28;20499;-85
2023/07/19 10:30:41;;;;;;;1.25;0.82;;;25.80;55.00;;;;;;5056528;28;20119;-86
2023/07/19 10:33:07;;;;;;;1.15;0.80;;;25.90;55.00;;;;;;5059972;28;20036;-85
2023/07/19 10:35:33;;;;;;;1.90;1.00;;;25.90;54.90;;;;;;5039870;28;20035;-85
2023/07/19 10:37:59;;;;;;;1.27;1.00;;;25.90;54.80;;;;;;5061805;28;20123;-85
2023/07/19 10:40:25;;;;;;;1.23;1.00;;;26.00;54.80;;;;;;5056352;28;20056;-86
2023/07/19 10:42:50;;;;;;;1.20;1.10;;;26.00;54.80;;;;;;5056562;28;20033;-87
2023/07/19 10:45:16;;;;;;;2.08;0.98;;;26.10;54.90;;;;;;5040601;28;20038;-85
2023/07/19 10:47:42;;;;;;;2.60;1.13;;;26.10;54.80;;;;;;5039714;28;20086;-83
2023/07/19 10:50:12;;;;;;;1.45;0.82;;;26.20;54.80;;;;;;5007851;28;20155;-92
2023/07/19 10:52:38;;;;;;;1.88;1.23;;;26.20;54.80;;;;;;5057089;28;20033;-84
2023/07/19 10:55:04;;;;;;;1.10;1.00;;;26.20;54.60;;;;;;5074002;28;20060;-88
2023/07/19 10:57:31;;;;;;;1.77;1.23;;;26.30;54.80;;;;;;5023537;28;20488;-86
2023/07/19 10:59:57;;;;;;;1.35;0.90;;;26.40;54.80;;;;;;5073301;28;20109;-83
2023/07/19 11:02:24;;;;;;;1.50;1.17;;;26.40;54.80;;;;;;5040616;28;20457;-87
2023/07/19 11:04:49;;;;;;;1.42;1.23;;;26.40;54.70;;;;;;5039540;28;20166;-85
2023/07/19 11:07:15;;;;;;;1.55;1.00;;;26.50;54.70;;;;;;5056244;28;20078;-87
2023/07/19 11:09:42;;;;;;;1.83;1.10;;;26.50;54.70;;;;;;5056605;28;20035;-87
2023/07/19 11:12:10;;;;;;;1.60;1.20;;;26.50;54.60;;;;;;5056396;28;20033;-88
2023/07/19 11:14:41;;;;;;;1.77;1.00;;;26.50;54.60;;;;;;5056755;28;20032;-88
2023/07/19 11:17:07;;;;;;;1.98;1.02;;;26.60;54.70;;;;;;5056325;28;20511;-85
2023/07/19 11:19:38;;;;;;;1.08;0.98;;;26.60;54.70;;;;;;5022756;28;20040;-84
2023/07/19 11:22:19;;;;;;;2.67;1.48;;;26.60;54.70;;;;;;5056786;28;20036;-85
2023/07/19 11:24:46;;;;;;;1.05;0.95;;;26.60;54.70;;;;;;5073347;28;20060;-85
2023/07/19 11:27:12;;;;;;;1.80;1.30;;;26.70;54.80;;;;;;5074071;28;20025;-89
2023/07/19 11:29:38;;;;;;;1.38;1.10;;;26.60;54.70;;;;;;5074125;28;20021;-87
2023/07/19 11:32:23;;;;;;;1.73;1.35;;;26.60;54.70;;;;;;5023433;28;20129;-86
2023/07/19 11:34:59;;;;;;;1.50;1.10;;;26.60;54.80;;;;;;5044105;28;20147;-88
2023/07/19 11:37:33;;;;;;;1.85;1.30;;;26.70;54.90;;;;;;5043550;28;20032;-88
2023/07/19 11:40:09;;;;;;;1.30;1.08;;;26.70;54.90;;;;;;5061091;28;20388;-87
2023/07/19 11:42:45;;;;;;;1.27;1.17;;;26.70;54.90;;;;;;5060895;28;20082;-86
2023/07/19 11:45:12;;;;;;;1.48;1.10;;;26.70;54.90;;;;;;5061711;28;20058;-89
2023/07/19 11:47:40;;;;;;;1.30;1.10;;;26.70;55.00;;;;;;5061905;28;20040;-87
2023/07/19 11:50:10;;;;;;;2.28;1.30;;;26.70;55.00;;;;;;5043606;28;20476;-80
2023/07/19 11:52:51;;;;;;;1.20;0.98;;;26.70;55.00;;;;;;5060293;28;20032;-80
2023/07/19 11:55:18;;;;;;;1.88;1.10;;;26.80;55.10;;;;;;5056064;28;20059;-83
2023/07/19 11:57:49;;;;;;;1.58;1.13;;;26.80;55.00;;;;;;5056465;28;20035;-87
2023/07/19 12:00:23;;;;;;;1.10;1.00;;;26.80;55.00;;;;;;5056732;28;20056;-86
2023/07/19 12:02:50;;;;;;;1.38;1.17;;;26.70;55.00;;;;;;5056095;28;20128;-86
2023/07/19 12:05:21;;;;;;;1.42;0.95;;;26.70;55.00;;;;;;5039281;28;20033;-85
2023/07/19 12:07:50;;;;;;;1.27;1.17;;;26.70;55.00;;;;;;5056057;28;20115;-88
2023/07/19 12:10:17;;;;;;;1.75;1.35;;;26.70;55.10;;;;;;5055832;28;20025;-86
2023/07/19 12:12:44;;;;;;;1.30;1.20;;;26.80;55.20;;;;;;5055473;28;20032;-82
2023/07/19 12:15:11;;;;;;;2.05;1.10;;;26.70;55.20;;;;;;5005525;28;20033;-82
2023/07/19 12:17:37;;;;;;;1.60;1.20;;;26.70;55.20;;;;;;5055048;28;20033;-82
2023/07/19 12:20:06;;;;;;;1.70;1.00;;;26.70;55.30;;;;;;5056012;28;20033;-81
2023/07/19 12:22:36;;;;;;;2.03;1.25;;;26.70;55.30;;;;;;5055188;28;20103;-81
2023/07/19 12:25:05;;;;;;;1.75;1.10;;;26.70;55.40;;;;;;5056486;28;20079;-82
2023/07/19 12:27:34;;;;;;;2.08;1.30;;;26.70;55.50;;;;;;5038279;28;20033;-81
2023/07/19 12:30:00;;;;;;;2.55;1.30;;;26.70;55.50;;;;;;5054566;28;20485;-82
2023/07/19 12:32:30;;;;;;;3.45;1.58;;;26.60;55.50;;;;;;5054660;28;20059;-81
2023/07/19 12:34:56;;;;;;;2.25;1.30;;;26.60;55.60;;;;;;5037876;28;20029;-81
2023/07/19 12:37:22;;;;;;;2.40;1.38;;;26.60;55.60;;;;;;5038218;28;20039;-81
2023/07/19 12:39:50;;;;;;;1.98;1.20;;;26.60;55.70;;;;;;5054872;28;20083;-81
2023/07/19 12:42:16;;;;;;;2.50;1.45;;;26.60;55.70;;;;;;5054353;28;20037;-81
2023/07/19 12:44:42;;;;;;;1.73;1.20;;;26.60;55.70;;;;;;5053320;28;20037;-81
2023/07/19 12:47:08;;;;;;;2.20;1.27;;;26.60;55.70;;;;;;5054382;28;20035;-81